sensor_id;sensor_type;location;lat;lon;timestamp;temperature;humidity
3308;DHT22;1666;48.898;9.182;2022-09-13T00:01:56;16.10;1.00
3308;DHT22;1666;48.898;9.182;2022-09-13T00:04:26;16.10;1.00
3308;DHT22;1666;48.898;9.182;2022-09-13T00:06:56;16.10;1.00
3308;DHT22;1666;48.898;9.182;2022-09-13T00:09:26;16.10;1.00
3308;DHT22;1666;48.898;9.182;2022-09-13T00:11:58;16.10;1.00
3308;DHT22;1666;48.898;9.182;2022-09-13T00:14:28;16.00;1.00
3308;DHT22;1666;48.898;9.182;2022-09-13T00:16:57;16.00;1.00
3308;DHT22;1666;48.898;9.182;2022-09-13T00:19:27;16.10;1.00
3308;DHT22;1666;48.898;9.182;2022-09-13T00:21:57;16.10;1.00
3308;DHT22;1666;48.898;9.182;2022-09-13T00:24:27;16.10;1.00
3308;DHT22;1666;48.898;9.182;2022-09-13T00:26:59;16.10;1.00
3308;DHT22;1666;48.898;9.182;2022-09-13T00:29:29;16.00;1.00
3308;DHT22;1666;48.898;9.182;2022-09-13T00:31:59;16.00;1.00
3308;DHT22;1666;48.898;9.182;2022-09-13T00:34:29;16.00;1.00
3308;DHT22;1666;48.898;9.182;2022-09-13T00:36:59;16.00;1.00
3308;DHT22;1666;48.898;9.182;2022-09-13T00:39:28;16.00;1.00
3308;DHT22;1666;48.898;9.182;2022-09-13T00:42:01;16.00;1.00
3308;DHT22;1666;48.898;9.182;2022-09-13T00:44:52;15.90;1.00
3308;DHT22;1666;48.898;9.182;2022-09-13T00:47:27;15.90;1.00
3308;DHT22;1666;48.898;9.182;2022-09-13T00:50:05;15.90;1.00
3308;DHT22;1666;48.898;9.182;2022-09-13T00:52:37;15.80;1.00
3308;DHT22;1666;48.898;9.182;2022-09-13T00:55:16;15.80;1.00
3308;DHT22;1666;48.898;9.182;2022-09-13T00:57:50;15.80;1.00
3308;DHT22;1666;48.898;9.182;2022-09-13T01:00:21;15.80;1.00
3308;DHT22;1666;48.898;9.182;2022-09-13T01:02:54;15.80;1.00
3308;DHT22;1666;48.898;9.182;2022-09-13T01:05:34;15.80;1.00
3308;DHT22;1666;48.898;9.182;2022-09-13T01:08:05;15.80;1.00
3308;DHT22;1666;48.898;9.182;2022-09-13T01:10:42;15.70;1.00
3308;DHT22;1666;48.898;9.182;2022-09-13T01:13:18;15.70;1.00
3308;DHT22;1666;48.898;9.182;2022-09-13T01:15:49;15.70;1.00
3308;DHT22;1666;48.898;9.182;2022-09-13T01:18:19;15.80;1.00
3308;DHT22;1666;48.898;9.182;2022-09-13T01:24:30;15.70;1.00
3308;DHT22;1666;48.898;9.182;2022-09-13T01:27:32;15.70;1.00
3308;DHT22;1666;48.898;9.182;2022-09-13T01:30:10;15.70;1.00
3308;DHT22;1666;48.898;9.182;2022-09-13T01:35:43;15.70;1.00
3308;DHT22;1666;48.898;9.182;2022-09-13T01:38:31;15.60;1.00
3308;DHT22;1666;48.898;9.182;2022-09-13T01:41:18;15.50;1.00
3308;DHT22;1666;48.898;9.182;2022-09-13T01:43:55;15.40;1.00
3308;DHT22;1666;48.898;9.182;2022-09-13T01:46:33;15.30;1.00
3308;DHT22;1666;48.898;9.182;2022-09-13T01:49:13;15.30;2.30
3308;DHT22;1666;48.898;9.182;2022-09-13T01:51:48;15.20;2.00
3308;DHT22;1666;48.898;9.182;2022-09-13T01:54:25;15.20;2.60
3308;DHT22;1666;48.898;9.182;2022-09-13T01:57:02;15.20;2.50
3308;DHT22;1666;48.898;9.182;2022-09-13T01:59:38;15.10;3.00
3308;DHT22;1666;48.898;9.182;2022-09-13T02:02:16;15.00;3.70
3308;DHT22;1666;48.898;9.182;2022-09-13T02:04:51;15.00;5.10
3308;DHT22;1666;48.898;9.182;2022-09-13T02:07:27;15.00;4.30
3308;DHT22;1666;48.898;9.182;2022-09-13T02:10:02;15.00;5.10
3308;DHT22;1666;48.898;9.182;2022-09-13T02:12:35;15.00;5.20
3308;DHT22;1666;48.898;9.182;2022-09-13T02:15:09;14.90;6.30
3308;DHT22;1666;48.898;9.182;2022-09-13T02:17:46;14.90;6.60
3308;DHT22;1666;48.898;9.182;2022-09-13T02:20:18;14.90;6.70
3308;DHT22;1666;48.898;9.182;2022-09-13T02:22:53;14.90;6.20
3308;DHT22;1666;48.898;9.182;2022-09-13T02:25:25;14.90;6.40
3308;DHT22;1666;48.898;9.182;2022-09-13T02:28:00;14.90;6.40
3308;DHT22;1666;48.898;9.182;2022-09-13T02:30:32;14.90;6.40
3308;DHT22;1666;48.898;9.182;2022-09-13T02:33:10;14.90;6.60
3308;DHT22;1666;48.898;9.182;2022-09-13T02:35:45;15.00;6.60
3308;DHT22;1666;48.898;9.182;2022-09-13T02:38:21;15.00;6.70
3308;DHT22;1666;48.898;9.182;2022-09-13T02:40:56;14.90;7.10
3308;DHT22;1666;48.898;9.182;2022-09-13T02:43:32;14.90;7.10
3308;DHT22;1666;48.898;9.182;2022-09-13T02:46:19;14.90;7.40
3308;DHT22;1666;48.898;9.182;2022-09-13T02:48:57;14.80;8.10
3308;DHT22;1666;48.898;9.182;2022-09-13T02:51:31;14.80;9.60
3308;DHT22;1666;48.898;9.182;2022-09-13T02:54:09;14.70;9.30
3308;DHT22;1666;48.898;9.182;2022-09-13T02:56:50;14.70;10.10
3308;DHT22;1666;48.898;9.182;2022-09-13T02:59:23;14.70;10.50
3308;DHT22;1666;48.898;9.182;2022-09-13T03:01:57;14.70;10.80
3308;DHT22;1666;48.898;9.182;2022-09-13T03:04:32;14.70;10.50
3308;DHT22;1666;48.898;9.182;2022-09-13T03:07:02;14.70;10.80
3308;DHT22;1666;48.898;9.182;2022-09-13T03:09:33;14.70;11.00
3308;DHT22;1666;48.898;9.182;2022-09-13T03:12:30;14.70;11.00
3308;DHT22;1666;48.898;9.182;2022-09-13T03:15:08;14.70;11.00
3308;DHT22;1666;48.898;9.182;2022-09-13T03:17:48;14.80;10.60
3308;DHT22;1666;48.898;9.182;2022-09-13T03:20:35;14.80;11.00
3308;DHT22;1666;48.898;9.182;2022-09-13T03:23:30;14.70;11.00
3308;DHT22;1666;48.898;9.182;2022-09-13T03:26:22;14.60;10.90
3308;DHT22;1666;48.898;9.182;2022-09-13T03:29:04;14.70;11.20
3308;DHT22;1666;48.898;9.182;2022-09-13T03:31:44;14.60;11.40
3308;DHT22;1666;48.898;9.182;2022-09-13T03:34:24;14.60;11.90
3308;DHT22;1666;48.898;9.182;2022-09-13T03:37:05;14.60;11.70
3308;DHT22;1666;48.898;9.182;2022-09-13T03:39:41;14.60;12.60
3308;DHT22;1666;48.898;9.182;2022-09-13T03:42:17;14.60;12.40
3308;DHT22;1666;48.898;9.182;2022-09-13T03:44:50;14.60;12.70
3308;DHT22;1666;48.898;9.182;2022-09-13T03:47:22;14.50;13.30
3308;DHT22;1666;48.898;9.182;2022-09-13T03:49:54;14.50;13.20
3308;DHT22;1666;48.898;9.182;2022-09-13T03:52:28;14.50;13.40
3308;DHT22;1666;48.898;9.182;2022-09-13T03:54:58;14.50;14.60
3308;DHT22;1666;48.898;9.182;2022-09-13T03:57:28;14.40;15.60
3308;DHT22;1666;48.898;9.182;2022-09-13T03:59:58;14.30;15.20
3308;DHT22;1666;48.898;9.182;2022-09-13T04:02:28;14.20;16.20
3308;DHT22;1666;48.898;9.182;2022-09-13T04:04:58;14.10;16.90
3308;DHT22;1666;48.898;9.182;2022-09-13T04:07:31;14.10;17.80
3308;DHT22;1666;48.898;9.182;2022-09-13T04:10:01;13.90;17.70
3308;DHT22;1666;48.898;9.182;2022-09-13T04:12:30;13.80;18.40
3308;DHT22;1666;48.898;9.182;2022-09-13T04:15:01;13.80;19.40
3308;DHT22;1666;48.898;9.182;2022-09-13T04:17:31;13.70;20.40
3308;DHT22;1666;48.898;9.182;2022-09-13T04:20:01;13.70;21.10
3308;DHT22;1666;48.898;9.182;2022-09-13T04:22:34;13.80;21.30
3308;DHT22;1666;48.898;9.182;2022-09-13T04:25:04;13.80;21.50
3308;DHT22;1666;48.898;9.182;2022-09-13T04:27:35;13.90;21.80
3308;DHT22;1666;48.898;9.182;2022-09-13T04:30:06;14.00;22.20
3308;DHT22;1666;48.898;9.182;2022-09-13T04:32:35;14.10;21.00
3308;DHT22;1666;48.898;9.182;2022-09-13T04:35:06;14.20;20.70
3308;DHT22;1666;48.898;9.182;2022-09-13T04:37:39;14.30;19.40
3308;DHT22;1666;48.898;9.182;2022-09-13T04:40:10;14.30;18.40
3308;DHT22;1666;48.898;9.182;2022-09-13T04:42:41;14.40;18.00
3308;DHT22;1666;48.898;9.182;2022-09-13T04:45:12;14.40;17.90
3308;DHT22;1666;48.898;9.182;2022-09-13T04:47:41;14.50;18.50
3308;DHT22;1666;48.898;9.182;2022-09-13T04:50:11;14.50;17.60
3308;DHT22;1666;48.898;9.182;2022-09-13T04:52:44;14.50;16.90
3308;DHT22;1666;48.898;9.182;2022-09-13T04:55:14;14.50;17.00
3308;DHT22;1666;48.898;9.182;2022-09-13T04:57:43;14.50;17.40
3308;DHT22;1666;48.898;9.182;2022-09-13T05:00:14;14.50;16.90
3308;DHT22;1666;48.898;9.182;2022-09-13T05:02:43;14.50;16.50
3308;DHT22;1666;48.898;9.182;2022-09-13T05:05:13;14.60;16.60
3308;DHT22;1666;48.898;9.182;2022-09-13T05:07:48;14.60;16.30
3308;DHT22;1666;48.898;9.182;2022-09-13T05:10:18;14.70;16.40
3308;DHT22;1666;48.898;9.182;2022-09-13T05:12:48;14.70;16.40
3308;DHT22;1666;48.898;9.182;2022-09-13T05:15:18;14.80;15.70
3308;DHT22;1666;48.898;9.182;2022-09-13T05:17:48;14.80;15.50
3308;DHT22;1666;48.898;9.182;2022-09-13T05:20:17;15.00;14.50
3308;DHT22;1666;48.898;9.182;2022-09-13T05:22:50;16.00;5.50
3308;DHT22;1666;48.898;9.182;2022-09-13T05:25:19;16.80;1.00
3308;DHT22;1666;48.898;9.182;2022-09-13T05:27:52;16.70;1.10
3308;DHT22;1666;48.898;9.182;2022-09-13T05:30:21;15.90;4.30
3308;DHT22;1666;48.898;9.182;2022-09-13T05:32:51;15.60;6.50
3308;DHT22;1666;48.898;9.182;2022-09-13T05:35:21;15.40;9.30
3308;DHT22;1666;48.898;9.182;2022-09-13T05:37:53;15.40;10.00
3308;DHT22;1666;48.898;9.182;2022-09-13T05:40:23;15.40;9.90
3308;DHT22;1666;48.898;9.182;2022-09-13T05:42:53;15.40;9.60
3308;DHT22;1666;48.898;9.182;2022-09-13T05:45:23;15.30;9.30
3308;DHT22;1666;48.898;9.182;2022-09-13T05:47:53;15.30;9.50
3308;DHT22;1666;48.898;9.182;2022-09-13T05:50:22;15.40;9.70
3308;DHT22;1666;48.898;9.182;2022-09-13T05:53:15;15.30;10.10
3308;DHT22;1666;48.898;9.182;2022-09-13T05:55:45;15.40;9.90
3308;DHT22;1666;48.898;9.182;2022-09-13T05:58:14;15.30;9.00
3308;DHT22;1666;48.898;9.182;2022-09-13T06:00:44;15.40;9.70
3308;DHT22;1666;48.898;9.182;2022-09-13T06:03:14;15.60;9.10
3308;DHT22;1666;48.898;9.182;2022-09-13T06:05:44;15.60;7.90
3308;DHT22;1666;48.898;9.182;2022-09-13T06:08:16;15.70;7.20
3308;DHT22;1666;48.898;9.182;2022-09-13T06:10:53;15.80;7.20
3308;DHT22;1666;48.898;9.182;2022-09-13T06:13:24;15.90;7.10
3308;DHT22;1666;48.898;9.182;2022-09-13T06:15:55;16.00;6.70
3308;DHT22;1666;48.898;9.182;2022-09-13T06:18:26;16.10;6.20
3308;DHT22;1666;48.898;9.182;2022-09-13T06:21:00;16.10;5.00
3308;DHT22;1666;48.898;9.182;2022-09-13T06:23:32;16.10;4.40
3308;DHT22;1666;48.898;9.182;2022-09-13T06:26:04;16.00;4.40
3308;DHT22;1666;48.898;9.182;2022-09-13T06:28:35;16.00;5.40
3308;DHT22;1666;48.898;9.182;2022-09-13T06:31:07;16.00;5.40
3308;DHT22;1666;48.898;9.182;2022-09-13T06:33:39;16.00;6.00
3308;DHT22;1666;48.898;9.182;2022-09-13T06:36:11;16.00;6.10
3308;DHT22;1666;48.898;9.182;2022-09-13T06:38:44;16.10;6.00
3308;DHT22;1666;48.898;9.182;2022-09-13T06:41:16;16.20;6.00
3308;DHT22;1666;48.898;9.182;2022-09-13T06:43:46;16.30;5.40
3308;DHT22;1666;48.898;9.182;2022-09-13T06:46:17;16.20;4.70
3308;DHT22;1666;48.898;9.182;2022-09-13T06:48:51;16.60;4.80
3308;DHT22;1666;48.898;9.182;2022-09-13T06:51:23;16.60;1.80
3308;DHT22;1666;48.898;9.182;2022-09-13T06:53:58;16.70;2.40
3308;DHT22;1666;48.898;9.182;2022-09-13T06:56:30;16.90;1.00
3308;DHT22;1666;48.898;9.182;2022-09-13T06:59:02;17.10;1.00
3308;DHT22;1666;48.898;9.182;2022-09-13T07:01:34;17.10;1.00
3308;DHT22;1666;48.898;9.182;2022-09-13T07:04:06;17.30;1.00
3308;DHT22;1666;48.898;9.182;2022-09-13T07:06:37;17.40;1.00
3308;DHT22;1666;48.898;9.182;2022-09-13T07:09:11;17.70;1.00
3308;DHT22;1666;48.898;9.182;2022-09-13T07:11:41;17.60;1.00
3308;DHT22;1666;48.898;9.182;2022-09-13T07:14:14;17.50;1.00
3308;DHT22;1666;48.898;9.182;2022-09-13T07:16:44;17.70;1.00
3308;DHT22;1666;48.898;9.182;2022-09-13T07:19:15;17.80;1.00
3308;DHT22;1666;48.898;9.182;2022-09-13T07:21:46;17.80;1.00
3308;DHT22;1666;48.898;9.182;2022-09-13T07:24:19;17.90;1.00
3308;DHT22;1666;48.898;9.182;2022-09-13T07:26:49;17.90;1.00
3308;DHT22;1666;48.898;9.182;2022-09-13T07:29:22;18.00;1.00
3308;DHT22;1666;48.898;9.182;2022-09-13T07:31:53;17.90;1.00
3308;DHT22;1666;48.898;9.182;2022-09-13T07:34:25;18.00;1.00
3308;DHT22;1666;48.898;9.182;2022-09-13T07:36:55;18.10;1.00
3308;DHT22;1666;48.898;9.182;2022-09-13T07:39:28;18.20;1.00
3308;DHT22;1666;48.898;9.182;2022-09-13T07:41:57;18.50;1.00
3308;DHT22;1666;48.898;9.182;2022-09-13T07:44:27;18.90;1.00
3308;DHT22;1666;48.898;9.182;2022-09-13T07:46:57;19.10;1.00
3308;DHT22;1666;48.898;9.182;2022-09-13T07:49:27;19.40;1.00
3308;DHT22;1666;48.898;9.182;2022-09-13T07:51:57;19.40;1.00
3308;DHT22;1666;48.898;9.182;2022-09-13T07:54:29;19.60;1.00
3308;DHT22;1666;48.898;9.182;2022-09-13T07:57:01;19.80;1.00
3308;DHT22;1666;48.898;9.182;2022-09-13T07:59:31;19.50;1.00
3308;DHT22;1666;48.898;9.182;2022-09-13T08:02:00;19.50;1.00
3308;DHT22;1666;48.898;9.182;2022-09-13T08:04:30;19.60;1.00
3308;DHT22;1666;48.898;9.182;2022-09-13T08:07:02;19.70;1.00
3308;DHT22;1666;48.898;9.182;2022-09-13T08:09:34;20.00;1.00
3308;DHT22;1666;48.898;9.182;2022-09-13T08:12:04;20.20;1.00
3308;DHT22;1666;48.898;9.182;2022-09-13T08:14:34;20.30;1.00
3308;DHT22;1666;48.898;9.182;2022-09-13T08:17:04;20.40;1.00
3308;DHT22;1666;48.898;9.182;2022-09-13T08:19:35;20.40;1.00
3308;DHT22;1666;48.898;9.182;2022-09-13T08:22:05;20.50;1.00
3308;DHT22;1666;48.898;9.182;2022-09-13T08:24:37;20.50;1.00
3308;DHT22;1666;48.898;9.182;2022-09-13T08:27:07;20.80;1.00
3308;DHT22;1666;48.898;9.182;2022-09-13T08:29:36;20.70;1.00
3308;DHT22;1666;48.898;9.182;2022-09-13T08:32:06;20.90;1.00
3308;DHT22;1666;48.898;9.182;2022-09-13T08:34:36;21.10;1.00
3308;DHT22;1666;48.898;9.182;2022-09-13T08:37:06;21.60;1.00
3308;DHT22;1666;48.898;9.182;2022-09-13T08:39:40;21.40;1.00
3308;DHT22;1666;48.898;9.182;2022-09-13T08:42:22;21.60;1.00
3308;DHT22;1666;48.898;9.182;2022-09-13T08:44:54;21.60;1.00
3308;DHT22;1666;48.898;9.182;2022-09-13T08:47:37;21.30;1.00
3308;DHT22;1666;48.898;9.182;2022-09-13T08:50:14;21.30;1.00
3308;DHT22;1666;48.898;9.182;2022-09-13T08:52:52;21.20;1.00
3308;DHT22;1666;48.898;9.182;2022-09-13T08:55:33;21.20;1.00
3308;DHT22;1666;48.898;9.182;2022-09-13T08:58:18;21.40;1.00
3308;DHT22;1666;48.898;9.182;2022-09-13T09:00:59;21.70;1.00
3308;DHT22;1666;48.898;9.182;2022-09-13T09:03:38;21.80;1.00
3308;DHT22;1666;48.898;9.182;2022-09-13T09:06:12;22.20;1.00
3308;DHT22;1666;48.898;9.182;2022-09-13T09:08:46;22.30;1.00
3308;DHT22;1666;48.898;9.182;2022-09-13T09:11:27;22.10;1.00
3308;DHT22;1666;48.898;9.182;2022-09-13T09:14:04;22.30;1.00
3308;DHT22;1666;48.898;9.182;2022-09-13T09:16:38;22.10;1.00
3308;DHT22;1666;48.898;9.182;2022-09-13T09:19:16;22.10;1.00
3308;DHT22;1666;48.898;9.182;2022-09-13T09:21:49;21.80;1.00
3308;DHT22;1666;48.898;9.182;2022-09-13T09:24:22;22.00;1.00
3308;DHT22;1666;48.898;9.182;2022-09-13T09:26:56;21.90;1.00
3308;DHT22;1666;48.898;9.182;2022-09-13T09:29:28;21.90;1.00
3308;DHT22;1666;48.898;9.182;2022-09-13T09:32:09;22.00;1.00
3308;DHT22;1666;48.898;9.182;2022-09-13T09:34:50;22.50;1.00
3308;DHT22;1666;48.898;9.182;2022-09-13T09:37:27;22.50;1.00
3308;DHT22;1666;48.898;9.182;2022-09-13T09:39:59;22.50;1.00
3308;DHT22;1666;48.898;9.182;2022-09-13T09:42:41;22.60;1.00
3308;DHT22;1666;48.898;9.182;2022-09-13T09:45:23;22.70;1.00
3308;DHT22;1666;48.898;9.182;2022-09-13T09:47:59;22.80;1.00
3308;DHT22;1666;48.898;9.182;2022-09-13T09:50:36;22.60;1.00
3308;DHT22;1666;48.898;9.182;2022-09-13T09:53:11;22.60;1.00
3308;DHT22;1666;48.898;9.182;2022-09-13T09:55:44;22.80;1.00
3308;DHT22;1666;48.898;9.182;2022-09-13T09:58:36;23.00;1.00
3308;DHT22;1666;48.898;9.182;2022-09-13T10:01:15;23.10;1.00
3308;DHT22;1666;48.898;9.182;2022-09-13T10:03:54;23.20;1.00
3308;DHT22;1666;48.898;9.182;2022-09-13T10:06:27;23.60;1.00
3308;DHT22;1666;48.898;9.182;2022-09-13T10:08:59;23.50;1.00
3308;DHT22;1666;48.898;9.182;2022-09-13T10:11:41;23.30;1.00
3308;DHT22;1666;48.898;9.182;2022-09-13T10:14:42;23.50;1.00
3308;DHT22;1666;48.898;9.182;2022-09-13T10:17:17;23.70;1.00
3308;DHT22;1666;48.898;9.182;2022-09-13T10:19:54;23.70;1.00
3308;DHT22;1666;48.898;9.182;2022-09-13T10:22:25;24.20;1.00
3308;DHT22;1666;48.898;9.182;2022-09-13T10:25:12;24.30;1.00
3308;DHT22;1666;48.898;9.182;2022-09-13T10:27:48;24.30;1.00
3308;DHT22;1666;48.898;9.182;2022-09-13T10:30:31;24.60;1.00
3308;DHT22;1666;48.898;9.182;2022-09-13T10:33:03;24.90;1.00
3308;DHT22;1666;48.898;9.182;2022-09-13T10:35:34;25.00;1.00
3308;DHT22;1666;48.898;9.182;2022-09-13T10:38:03;25.10;1.00
3308;DHT22;1666;48.898;9.182;2022-09-13T10:40:33;24.90;1.00
3308;DHT22;1666;48.898;9.182;2022-09-13T10:43:14;25.00;1.00
3308;DHT22;1666;48.898;9.182;2022-09-13T10:45:50;25.20;1.00
3308;DHT22;1666;48.898;9.182;2022-09-13T10:48:21;25.50;1.00
3308;DHT22;1666;48.898;9.182;2022-09-13T10:51:03;25.90;1.00
3308;DHT22;1666;48.898;9.182;2022-09-13T10:53:36;25.80;1.00
3308;DHT22;1666;48.898;9.182;2022-09-13T10:56:19;25.70;1.00
3308;DHT22;1666;48.898;9.182;2022-09-13T10:58:49;26.10;1.00
3308;DHT22;1666;48.898;9.182;2022-09-13T11:01:34;25.80;1.00
3308;DHT22;1666;48.898;9.182;2022-09-13T11:10:02;25.80;1.00
3308;DHT22;1666;48.898;9.182;2022-09-13T11:12:41;26.10;1.00
3308;DHT22;1666;48.898;9.182;2022-09-13T11:15:19;26.60;1.00
3308;DHT22;1666;48.898;9.182;2022-09-13T11:18:18;26.90;1.00
3308;DHT22;1666;48.898;9.182;2022-09-13T11:20:55;26.50;1.00
3308;DHT22;1666;48.898;9.182;2022-09-13T11:23:38;26.20;1.00
3308;DHT22;1666;48.898;9.182;2022-09-13T11:26:28;25.50;1.00
3308;DHT22;1666;48.898;9.182;2022-09-13T11:29:12;26.00;1.00
3308;DHT22;1666;48.898;9.182;2022-09-13T11:31:56;26.00;1.00
3308;DHT22;1666;48.898;9.182;2022-09-13T11:34:40;26.00;1.00
3308;DHT22;1666;48.898;9.182;2022-09-13T11:37:20;26.30;1.00
3308;DHT22;1666;48.898;9.182;2022-09-13T11:40:05;26.60;1.00
3308;DHT22;1666;48.898;9.182;2022-09-13T11:42:45;26.50;1.00
3308;DHT22;1666;48.898;9.182;2022-09-13T11:45:21;26.50;1.00
3308;DHT22;1666;48.898;9.182;2022-09-13T11:48:37;26.70;1.00
3308;DHT22;1666;48.898;9.182;2022-09-13T11:51:22;26.60;1.00
3308;DHT22;1666;48.898;9.182;2022-09-13T11:54:14;26.80;1.00
3308;DHT22;1666;48.898;9.182;2022-09-13T11:56:49;26.80;1.00
3308;DHT22;1666;48.898;9.182;2022-09-13T11:59:30;26.80;1.00
3308;DHT22;1666;48.898;9.182;2022-09-13T12:02:13;26.80;1.00
3308;DHT22;1666;48.898;9.182;2022-09-13T12:04:51;27.00;1.00
3308;DHT22;1666;48.898;9.182;2022-09-13T12:07:47;26.40;1.00
3308;DHT22;1666;48.898;9.182;2022-09-13T12:10:22;26.80;1.00
3308;DHT22;1666;48.898;9.182;2022-09-13T12:12:54;27.10;1.00
3308;DHT22;1666;48.898;9.182;2022-09-13T12:15:34;27.30;1.00
3308;DHT22;1666;48.898;9.182;2022-09-13T12:18:09;27.30;1.00
3308;DHT22;1666;48.898;9.182;2022-09-13T12:20:47;27.30;1.00
3308;DHT22;1666;48.898;9.182;2022-09-13T12:23:23;27.20;1.00
3308;DHT22;1666;48.898;9.182;2022-09-13T12:25:59;26.90;1.00
3308;DHT22;1666;48.898;9.182;2022-09-13T12:28:35;26.70;1.00
3308;DHT22;1666;48.898;9.182;2022-09-13T12:31:10;26.70;1.00
3308;DHT22;1666;48.898;9.182;2022-09-13T12:33:42;26.60;1.00
3308;DHT22;1666;48.898;9.182;2022-09-13T12:48:30;27.00;1.00
3308;DHT22;1666;48.898;9.182;2022-09-13T12:51:13;27.10;1.00
3308;DHT22;1666;48.898;9.182;2022-09-13T12:57:02;27.50;1.00
3308;DHT22;1666;48.898;9.182;2022-09-13T12:59:56;27.20;1.00
3308;DHT22;1666;48.898;9.182;2022-09-13T13:02:32;27.30;1.00
3308;DHT22;1666;48.898;9.182;2022-09-13T13:05:05;27.20;1.00
3308;DHT22;1666;48.898;9.182;2022-09-13T13:07:37;27.40;1.00
3308;DHT22;1666;48.898;9.182;2022-09-13T13:10:24;27.50;1.00
3308;DHT22;1666;48.898;9.182;2022-09-13T13:13:09;27.50;1.00
3308;DHT22;1666;48.898;9.182;2022-09-13T13:15:59;27.30;1.00
3308;DHT22;1666;48.898;9.182;2022-09-13T13:18:30;27.10;1.00
3308;DHT22;1666;48.898;9.182;2022-09-13T13:21:22;27.50;1.00
3308;DHT22;1666;48.898;9.182;2022-09-13T13:26:54;27.50;1.00
3308;DHT22;1666;48.898;9.182;2022-09-13T13:29:26;27.70;1.00
3308;DHT22;1666;48.898;9.182;2022-09-13T13:32:12;27.80;1.00
3308;DHT22;1666;48.898;9.182;2022-09-13T13:34:44;27.70;1.00
3308;DHT22;1666;48.898;9.182;2022-09-13T13:37:29;27.90;1.00
3308;DHT22;1666;48.898;9.182;2022-09-13T13:40:19;27.80;1.00
3308;DHT22;1666;48.898;9.182;2022-09-13T13:46:27;27.90;1.00
3308;DHT22;1666;48.898;9.182;2022-09-13T13:55:02;27.80;1.00
3308;DHT22;1666;48.898;9.182;2022-09-13T13:57:35;27.40;1.00
3308;DHT22;1666;48.898;9.182;2022-09-13T14:00:13;27.20;1.00
3308;DHT22;1666;48.898;9.182;2022-09-13T14:02:56;27.10;1.00
3308;DHT22;1666;48.898;9.182;2022-09-13T14:05:30;27.10;1.00
3308;DHT22;1666;48.898;9.182;2022-09-13T14:08:25;27.30;1.00
3308;DHT22;1666;48.898;9.182;2022-09-13T14:11:04;27.20;1.00
3308;DHT22;1666;48.898;9.182;2022-09-13T14:13:44;27.30;1.00
3308;DHT22;1666;48.898;9.182;2022-09-13T14:16:24;27.40;1.00
3308;DHT22;1666;48.898;9.182;2022-09-13T14:19:16;27.40;1.00
3308;DHT22;1666;48.898;9.182;2022-09-13T14:22:06;27.50;1.00
3308;DHT22;1666;48.898;9.182;2022-09-13T14:24:41;27.30;1.00
3308;DHT22;1666;48.898;9.182;2022-09-13T14:27:20;27.60;1.00
3308;DHT22;1666;48.898;9.182;2022-09-13T14:29:52;27.70;1.00
3308;DHT22;1666;48.898;9.182;2022-09-13T14:32:25;27.70;1.00
3308;DHT22;1666;48.898;9.182;2022-09-13T14:35:05;27.70;1.00
3308;DHT22;1666;48.898;9.182;2022-09-13T14:37:37;28.00;1.00
3308;DHT22;1666;48.898;9.182;2022-09-13T14:40:16;28.10;1.00
3308;DHT22;1666;48.898;9.182;2022-09-13T14:42:49;27.70;1.00
3308;DHT22;1666;48.898;9.182;2022-09-13T14:45:22;27.70;1.00
3308;DHT22;1666;48.898;9.182;2022-09-13T14:47:56;27.90;1.00
3308;DHT22;1666;48.898;9.182;2022-09-13T14:50:32;28.10;1.00
3308;DHT22;1666;48.898;9.182;2022-09-13T14:53:04;28.00;1.00
3308;DHT22;1666;48.898;9.182;2022-09-13T14:55:37;28.00;1.00
3308;DHT22;1666;48.898;9.182;2022-09-13T14:58:17;27.90;1.00
3308;DHT22;1666;48.898;9.182;2022-09-13T15:00:50;28.00;1.00
3308;DHT22;1666;48.898;9.182;2022-09-13T15:03:21;28.00;1.00
3308;DHT22;1666;48.898;9.182;2022-09-13T15:05:53;27.90;1.00
3308;DHT22;1666;48.898;9.182;2022-09-13T15:08:44;27.80;1.00
3308;DHT22;1666;48.898;9.182;2022-09-13T15:11:26;27.70;1.00
3308;DHT22;1666;48.898;9.182;2022-09-13T15:14:18;27.70;1.00
3308;DHT22;1666;48.898;9.182;2022-09-13T15:16:51;27.70;1.00
3308;DHT22;1666;48.898;9.182;2022-09-13T15:19:29;27.50;1.00
3308;DHT22;1666;48.898;9.182;2022-09-13T15:22:19;27.40;1.00
3308;DHT22;1666;48.898;9.182;2022-09-13T15:24:51;27.40;1.00
3308;DHT22;1666;48.898;9.182;2022-09-13T15:27:27;27.20;1.00
3308;DHT22;1666;48.898;9.182;2022-09-13T15:30:02;27.10;1.00
3308;DHT22;1666;48.898;9.182;2022-09-13T15:32:39;27.00;1.00
3308;DHT22;1666;48.898;9.182;2022-09-13T15:35:22;26.90;1.00
3308;DHT22;1666;48.898;9.182;2022-09-13T15:37:58;26.90;1.00
3308;DHT22;1666;48.898;9.182;2022-09-13T15:40:29;26.90;1.00
3308;DHT22;1666;48.898;9.182;2022-09-13T15:43:09;26.80;1.00
3308;DHT22;1666;48.898;9.182;2022-09-13T15:45:41;26.70;1.00
3308;DHT22;1666;48.898;9.182;2022-09-13T15:48:18;26.70;1.00
3308;DHT22;1666;48.898;9.182;2022-09-13T15:51:07;26.70;1.00
3308;DHT22;1666;48.898;9.182;2022-09-13T15:53:39;26.60;1.00
3308;DHT22;1666;48.898;9.182;2022-09-13T15:56:13;26.60;1.00
3308;DHT22;1666;48.898;9.182;2022-09-13T15:58:43;26.50;1.00
3308;DHT22;1666;48.898;9.182;2022-09-13T16:01:16;26.50;1.00
3308;DHT22;1666;48.898;9.182;2022-09-13T16:03:46;26.50;1.00
3308;DHT22;1666;48.898;9.182;2022-09-13T16:06:16;26.40;1.00
3308;DHT22;1666;48.898;9.182;2022-09-13T16:08:50;26.40;1.00
3308;DHT22;1666;48.898;9.182;2022-09-13T16:11:20;26.30;1.00
3308;DHT22;1666;48.898;9.182;2022-09-13T16:13:50;26.30;1.00
3308;DHT22;1666;48.898;9.182;2022-09-13T16:16:22;26.30;1.00
3308;DHT22;1666;48.898;9.182;2022-09-13T16:18:52;26.10;1.00
3308;DHT22;1666;48.898;9.182;2022-09-13T16:21:22;26.10;1.00
3308;DHT22;1666;48.898;9.182;2022-09-13T16:23:52;26.10;1.00
3308;DHT22;1666;48.898;9.182;2022-09-13T16:26:21;26.00;1.00
3308;DHT22;1666;48.898;9.182;2022-09-13T16:28:51;26.10;1.00
3308;DHT22;1666;48.898;9.182;2022-09-13T16:31:24;26.00;1.00
3308;DHT22;1666;48.898;9.182;2022-09-13T16:33:53;25.90;1.00
3308;DHT22;1666;48.898;9.182;2022-09-13T16:36:23;25.90;1.00
3308;DHT22;1666;48.898;9.182;2022-09-13T16:38:54;25.90;1.00
3308;DHT22;1666;48.898;9.182;2022-09-13T16:41:25;25.80;1.00
3308;DHT22;1666;48.898;9.182;2022-09-13T16:43:54;25.80;1.00
3308;DHT22;1666;48.898;9.182;2022-09-13T16:46:27;25.70;1.00
3308;DHT22;1666;48.898;9.182;2022-09-13T16:48:57;25.70;1.00
3308;DHT22;1666;48.898;9.182;2022-09-13T16:51:27;25.60;1.00
3308;DHT22;1666;48.898;9.182;2022-09-13T16:53:56;25.50;1.00
3308;DHT22;1666;48.898;9.182;2022-09-13T16:56:26;25.50;1.00
3308;DHT22;1666;48.898;9.182;2022-09-13T16:58:56;25.40;1.00
3308;DHT22;1666;48.898;9.182;2022-09-13T17:01:29;25.40;1.00
3308;DHT22;1666;48.898;9.182;2022-09-13T17:03:59;25.30;1.00
3308;DHT22;1666;48.898;9.182;2022-09-13T17:06:29;25.20;1.00
3308;DHT22;1666;48.898;9.182;2022-09-13T17:09:00;25.10;1.00
3308;DHT22;1666;48.898;9.182;2022-09-13T17:11:33;25.10;1.00
3308;DHT22;1666;48.898;9.182;2022-09-13T17:14:04;25.00;1.00
3308;DHT22;1666;48.898;9.182;2022-09-13T17:16:39;25.10;1.00
3308;DHT22;1666;48.898;9.182;2022-09-13T17:19:13;25.00;1.00
3308;DHT22;1666;48.898;9.182;2022-09-13T17:21:44;24.90;1.00
3308;DHT22;1666;48.898;9.182;2022-09-13T17:24:14;24.90;1.00
3308;DHT22;1666;48.898;9.182;2022-09-13T17:26:44;24.80;1.00
3308;DHT22;1666;48.898;9.182;2022-09-13T17:29:15;24.70;1.00
3308;DHT22;1666;48.898;9.182;2022-09-13T17:31:47;24.60;1.00
3308;DHT22;1666;48.898;9.182;2022-09-13T17:34:17;24.50;1.00
3308;DHT22;1666;48.898;9.182;2022-09-13T17:36:47;24.30;1.00
3308;DHT22;1666;48.898;9.182;2022-09-13T17:39:18;24.30;1.00
3308;DHT22;1666;48.898;9.182;2022-09-13T17:41:48;24.30;1.00
3308;DHT22;1666;48.898;9.182;2022-09-13T17:44:18;24.20;1.00
3308;DHT22;1666;48.898;9.182;2022-09-13T17:46:50;24.10;1.00